Terminal Aerodrome Forecast
Issued by NWS Twin Cities, MN

Home | Current Version | Previous Version | Text Only | Print | Product List | Glossary On
Versions: 1 2 3 4 5 6 7 8 9 10 11 12 13 14
000
FTUS43 KMPX 282007 AAA
TAFSTC
TAF AMD
KSTC 282007Z 2820/0118 19015G22KT P6SM SCT200
     FM282100 18014G20KT P6SM SCT040 BKN100
     FM010100 19009KT P6SM BKN030 OVC050
     FM010900 25006KT P6SM SCT030 BKN100
     FM011200 26008KT P6SM BKN150=

USA.gov is the U.S. government's official web portal to all federal, state and local government web resources and services.